Nearby METAR Reports

 

KBML - Berlin, NH
Updated: Wed, 08-Feb-2023 2:52pm EST
Mostly cloudy
Mostly cloudy
 Wind from WNW
Wind: WNW 10 mph , 17 km/h, Gust: 21 mph , 33 km/h
Temperature: 37°F , 3°C
Wind Chill: 30°F , -1°C
Dew Point: 25°F , -4°C
Humidity: 60%
Barometer: 30.01 inHg , 1016.3 hPa
Clouds: Mostly cloudy
Visibility: 10 miles , 16 km
Cloud details: Mostly cloudy 3500 ft
Mostly cloudy 4100 ft
2023/02/08 19:52 KBML 081952Z AUTO 29009G18KT 270V010 10SM BKN035 BKN041 03/M04 A3001 RMK AO2 RAB49E50 SLP177 P0000 T00331044
KCON - Concord, NH
Updated: Wed, 08-Feb-2023 2:51pm EST
Clear
Clear
 Wind from NW
Wind: NW 14 mph , 22 km/h, Gust: 33 mph , 54 km/h
Temperature: 43°F , 6°C
Wind Chill: 36°F , 2°C
Dew Point: 21°F , -6°C
Humidity: 42%
Barometer: 30.08 inHg , 1018.6 hPa
Clouds: Clear
Visibility: 10 miles , 16 km
2023/02/08 19:51 KCON 081951Z AUTO 31012G29KT 10SM CLR 06/M06 A3008 RMK AO2 PK WND 33029/1904 SLP191 T00561056
KAFN - Lebanon, NH
Updated: Wed, 08-Feb-2023 2:52pm EST
Clear
Clear
 Wind from W
Wind: W 9 mph , 15 km/h, Gust: 22 mph , 35 km/h
Temperature: 43°F , 6°C
Wind Chill: 38°F , 3°C
Dew Point: 21°F , -6°C
Humidity: 42%
Barometer: 30.10 inHg , 1019.3 hPa
Clouds: Clear
Visibility: 10 miles , 16 km
2023/02/08 19:52 KAFN 081952Z AUTO 28008G19KT 10SM CLR 06/M06 A3010 RMK AO2 SLP205 T00611056
 
KMHT - Manchester, NH
Updated: Wed, 08-Feb-2023 2:53pm EST
Few Clouds
Few Clouds
 Wind from WNW
Wind: WNW 14 mph , 22 km/h
Temperature: 46°F , 8°C
Wind Chill: 40°F , 4°C
Dew Point: 25°F , -4°C
Humidity: 43%
Barometer: 30.08 inHg , 1018.6 hPa
Clouds: Few Clouds
Visibility: 10 miles , 16 km
Cloud details: Few Clouds 5000 ft
2023/02/08 19:53 KMHT 081953Z 30012KT 10SM FEW050 08/M04 A3008 RMK AO2 SLP201 T00781044
KMWN - Mount Washington
Updated: Wed, 08-Feb-2023 2:59pm EST
Freezing fog, Overcast
Freezing fog, Overcast
 Wind from W
Wind: W 47 mph , 76 km/h, Gust: 62 mph , 100 km/h
Temperature: 14°F , -10°C
Wind Chill: -11°F , -24°C
Dew Point: 14°F , -10°C
Humidity: 100%
Summary: Freezing Fog
Clouds: Overcast
Visibility: 1/16 mile , 0.1 km
Cloud details: Overcast 0 ft
2023/02/08 19:59 KMWN 081959Z 28041G54KT 1/16SM FZFG VV000 M10/M10 RMK VRY LGT ICG
K25B - Portsmouth Harbor
Updated: Wed, 08-Feb-2023 3:47pm EST
unable to load K25B data RC=404 Not Found
unable to load K25B data RC=404 Not Found
 
 
KDDH - Bennington, VT
Updated: Wed, 08-Feb-2023 2:54pm EST
Mostly cloudy
Mostly cloudy
 Wind from WSW
Wind: WSW 9 mph , 15 km/h, Gust: 24 mph , 39 km/h
Temperature: 39°F , 4°C
Wind Chill: 33°F , 1°C
Dew Point: 23°F , -5°C
Humidity: 52%
Barometer: 30.17 inHg , 1021.7 hPa
Clouds: Mostly cloudy
Visibility: 10 miles , 16 km
Cloud details: Mostly cloudy 4700 ft
2023/02/08 19:54 KDDH 081954Z AUTO 24008G21KT 10SM BKN047 04/M05 A3017 RMK AO2 SLP224 T00441050
K9B2 - Newport, VT
Updated: Wed, 08-Feb-2023 3:47pm EST
unable to load K9B2 data RC=404 Not Found
unable to load K9B2 data RC=404 Not Found
 
K1V4 - St Johnsbury, VT
Updated: Wed, 08-Feb-2023 2:54pm EST

 
Temperature: 41°F , 5°C
Dew Point: 21°F , -6°C
Humidity: 45%
Barometer: 30.05 inHg , 1017.6 hPa
2023/02/08 19:54 K1V4 081954Z AUTO 05/M06 A3005 RMK AO1 SLP184 T00501056 PNO
 
KBGR - Bangor, ME
Updated: Wed, 08-Feb-2023 2:53pm EST
Partly cloudy
Partly cloudy
 Wind from WNW
Wind: WNW 16 mph , 26 km/h, Gust: 29 mph , 46 km/h
Temperature: 45°F , 7°C
Wind Chill: 38°F , 3°C
Dew Point: 18°F , -8°C
Humidity: 34%
Barometer: 29.95 inHg , 1014.2 hPa
Clouds: Partly cloudy
Visibility: 10 miles , 16 km
Cloud details: Partly cloudy 4500 ft
Partly cloudy 7500 ft
2023/02/08 19:53 KBGR 081953Z 30014G25KT 10SM SCT045 SCT075 07/M08 A2995 RMK AO2 SLP142 T00671078
KBHB - Bar Harbor, ME
Updated: Wed, 08-Feb-2023 2:56pm EST
Few Clouds
Few Clouds
 Wind from W
Wind: W 9 mph , 15 km/h, Gust: 22 mph , 35 km/h
Temperature: 43°F , 6°C
Wind Chill: 38°F , 3°C
Dew Point: 25°F , -4°C
Humidity: 49%
Barometer: 29.95 inHg , 1014.2 hPa
Clouds: Few Clouds
Visibility: 10 miles , 16 km
Cloud details: Few Clouds 4700 ft
2023/02/08 19:56 KBHB 081956Z AUTO 28008G19KT 10SM FEW047 06/M04 A2995 RMK AO2 SLP144 T00611039
74389 - Gray, ME
Updated: Wed, 31-Dec-1969 7:00pm EST
NOT Current
74389 not loaded
74389 not loaded
 
 
KGNR - Greenville,ME
Updated: Wed, 08-Feb-2023 2:56pm EST

 Wind from NW
Wind: NW 14 mph , 22 km/h, Gust: 32 mph , 52 km/h
Temperature: 37°F , 3°C
Wind Chill: 28°F , -2°C
Dew Point: 14°F , -10°C
Humidity: 38%
Barometer: 29.87 inHg , 1011.5 hPa
2023/02/08 19:56 KGNR 081956Z AUTO 31012G28KT 03/M10 A2987 RMK AO1 PK WND 30028/1947 SLP134 T00331100
KOLD - Old Town, ME
Updated: Wed, 08-Feb-2023 3:47pm EST
unable to load KOLD data RC=404 Not Found
unable to load KOLD data RC=404 Not Found
 
KRUM - Rumford, ME
Updated: Wed, 08-Feb-2023 3:47pm EST
unable to load KRUM data RC=404 Not Found
unable to load KRUM data RC=404 Not Found
 







Contact Us

© 2023, johnsnhweather | Weather-Display (10.37S-(b145)) | Valid XHTML 1.0 | Valid CSS

This website is neither affiliated with nor endorsed by the National Weather Service, the town of Pittsburg or any other government agency.
The weather data contained herein is offered without any warranties expressed or implied, and is meant to supplement NOAA weather forecasts and information. Never base important decisions that could result in harm to people or property on this weather information.